createdAt,value
2023-02-09T00:02:39.997Z,15.47
2023-02-09T00:05:43.148Z,20.03
2023-02-09T00:08:47.894Z,17.73
2023-02-09T00:12:08.223Z,25.13
2023-02-09T00:15:11.897Z,44.37
2023-02-09T00:18:15.051Z,68.87
2023-02-09T00:21:18.261Z,27.63
2023-02-09T00:24:22.892Z,18.00
2023-02-09T00:27:26.220Z,21.47
2023-02-09T00:30:29.461Z,17.23
2023-02-09T00:33:32.684Z,15.03
2023-02-09T00:36:36.288Z,16.47
2023-02-09T00:39:40.866Z,24.60
2023-02-09T00:42:44.034Z,18.03
2023-02-09T00:45:47.283Z,18.47
2023-02-09T00:48:50.489Z,15.17
2023-02-09T00:51:53.807Z,15.17
2023-02-09T00:54:58.369Z,17.90
2023-02-09T00:58:01.581Z,17.43
2023-02-09T01:01:04.853Z,14.77
2023-02-09T01:04:08.141Z,14.10
2023-02-09T01:07:11.315Z,14.27
2023-02-09T01:10:16.029Z,15.13
2023-02-09T01:13:19.218Z,17.20
2023-02-09T01:16:22.655Z,12.07
2023-02-09T01:19:26.871Z,13.93
2023-02-09T01:22:30.026Z,13.73
2023-02-09T01:25:34.632Z,16.80
2023-02-09T01:28:38.673Z,16.80
2023-02-09T01:31:42.036Z,14.80
2023-02-09T01:34:45.392Z,19.07
2023-02-09T01:37:48.570Z,14.37
2023-02-09T01:40:53.408Z,12.73
2023-02-09T01:44:00.046Z,13.13
2023-02-09T01:47:03.279Z,14.77
2023-02-09T01:50:06.756Z,13.83
2023-02-09T01:53:10.119Z,19.03
2023-02-09T01:56:19.620Z,16.83
2023-02-09T01:59:22.838Z,13.03
2023-02-09T02:02:26.583Z,17.70
2023-02-09T02:05:32.514Z,12.67
2023-02-09T02:08:39.602Z,16.87
2023-02-09T02:11:46.831Z,13.97
2023-02-09T02:14:49.992Z,13.27
2023-02-09T02:18:12.354Z,14.80
2023-02-09T02:21:50.224Z,16.83
2023-02-09T02:25:29.721Z,13.90
2023-02-09T02:28:43.846Z,12.17
2023-02-09T02:32:10.556Z,16.57
2023-02-09T02:35:21.852Z,15.87
2023-02-09T02:38:34.609Z,16.50
2023-02-09T02:42:03.398Z,18.87
2023-02-09T02:45:13.398Z,17.50
2023-02-09T02:48:26.257Z,19.70
2023-02-09T02:51:34.305Z,17.03
2023-02-09T02:54:42.714Z,18.13
2023-02-09T02:57:50.498Z,15.90
2023-02-09T03:00:57.781Z,14.90
2023-02-09T03:04:04.923Z,16.77
2023-02-09T03:07:09.078Z,13.93
2023-02-09T03:10:27.808Z,19.17
2023-02-09T03:13:42.551Z,17.53
2023-02-09T03:16:48.572Z,15.57
2023-02-09T03:20:00.858Z,14.67
2023-02-09T03:23:05.781Z,15.37
2023-02-09T03:26:13.696Z,14.80
2023-02-09T03:29:18.297Z,13.70
2023-02-09T03:32:22.604Z,15.10
2023-02-09T03:35:32.898Z,18.27
2023-02-09T03:38:36.028Z,16.30
2023-02-09T03:41:39.252Z,15.17
2023-02-09T03:44:42.437Z,20.00
2023-02-09T03:47:45.577Z,17.73
2023-02-09T03:50:50.091Z,17.50
2023-02-09T03:53:53.212Z,17.90
2023-02-09T03:56:56.412Z,15.53
2023-02-09T04:00:01.308Z,18.87
2023-02-09T04:03:04.871Z,15.93
2023-02-09T04:06:10.128Z,14.13
2023-02-09T04:09:14.109Z,16.57
2023-02-09T04:12:17.201Z,22.10
2023-02-09T04:15:20.341Z,26.27
2023-02-09T04:18:23.527Z,18.77
2023-02-09T04:21:28.241Z,18.13
2023-02-09T04:24:31.407Z,24.90
2023-02-09T04:27:34.806Z,18.53
2023-02-09T04:30:38.078Z,16.93
2023-02-09T04:33:41.259Z,20.30
2023-02-09T04:36:45.854Z,13.33
2023-02-09T04:39:49.050Z,19.97
2023-02-09T04:42:52.185Z,17.17
2023-02-09T04:45:55.595Z,15.60
2023-02-09T04:48:58.812Z,18.00
2023-02-09T04:52:03.359Z,25.77
2023-02-09T04:55:07.105Z,19.10
2023-02-09T04:58:30.045Z,20.73
2023-02-09T05:01:33.323Z,17.00
2023-02-09T05:04:36.484Z,17.07
2023-02-09T05:07:40.994Z,19.07
2023-02-09T05:10:44.389Z,24.03
2023-02-09T05:13:47.833Z,16.63
2023-02-09T05:16:51.049Z,20.03
2023-02-09T05:19:54.305Z,23.13
2023-02-09T05:22:58.814Z,20.83
2023-02-09T05:26:02.023Z,18.37
2023-02-09T05:29:05.546Z,16.30
2023-02-09T05:32:08.770Z,17.50
2023-02-09T05:35:11.979Z,16.43
2023-02-09T05:38:16.527Z,24.53
2023-02-09T05:41:33.534Z,20.67
2023-02-09T05:44:36.791Z,18.43
2023-02-09T05:47:39.962Z,19.80
2023-02-09T05:50:43.361Z,23.73
2023-02-09T05:53:48.012Z,24.67
2023-02-09T05:56:51.258Z,20.27
2023-02-09T05:59:54.404Z,23.60
2023-02-09T06:02:58.630Z,21.20
2023-02-09T06:06:01.872Z,29.83
2023-02-09T06:09:06.650Z,21.73
2023-02-09T06:12:09.911Z,23.50
2023-02-09T06:15:13.119Z,26.40
2023-02-09T06:18:16.378Z,20.20
2023-02-09T06:21:19.806Z,18.73
2023-02-09T06:24:24.360Z,20.63
2023-02-09T06:27:27.671Z,39.07
2023-02-09T06:30:32.843Z,24.27
2023-02-09T06:33:37.206Z,22.30
2023-02-09T06:36:40.634Z,22.37
2023-02-09T06:39:46.384Z,23.60
2023-02-09T06:42:49.559Z,25.20
2023-02-09T06:45:53.009Z,16.50
2023-02-09T06:48:57.216Z,29.23
2023-02-09T06:52:01.799Z,23.80
2023-02-09T06:55:07.238Z,21.47
2023-02-09T06:58:10.424Z,23.47
2023-02-09T07:01:15.670Z,29.60
2023-02-09T07:04:18.985Z,22.67
2023-02-09T07:07:22.522Z,22.57
2023-02-09T07:10:28.086Z,21.90
2023-02-09T07:13:31.994Z,27.60
2023-02-09T07:16:35.277Z,23.13
2023-02-09T07:19:38.486Z,30.87
2023-02-09T07:22:42.119Z,37.33
2023-02-09T07:25:46.762Z,33.20
2023-02-09T07:28:49.913Z,26.70
2023-02-09T07:31:53.171Z,28.33
2023-02-09T07:34:56.478Z,21.77
2023-02-09T07:38:00.322Z,25.27
2023-02-09T07:41:06.665Z,21.73
2023-02-09T07:44:10.538Z,26.50
2023-02-09T07:47:14.493Z,25.83
2023-02-09T07:50:19.268Z,24.40
2023-02-09T07:53:23.329Z,22.33
2023-02-09T07:56:28.778Z,29.03
2023-02-09T07:59:31.912Z,23.73
2023-02-09T08:02:37.787Z,23.17
2023-02-09T08:05:47.287Z,24.23
2023-02-09T08:08:52.926Z,23.20
2023-02-09T08:12:03.061Z,21.80
2023-02-09T08:15:07.243Z,21.60
2023-02-09T08:18:13.971Z,24.77
2023-02-09T08:21:18.772Z,20.60
2023-02-09T08:24:22.545Z,17.57
2023-02-09T08:27:27.397Z,25.20
2023-02-09T08:30:30.746Z,21.60
2023-02-09T08:33:33.924Z,24.67
2023-02-09T08:36:37.684Z,27.13
2023-02-09T08:39:40.891Z,22.23
2023-02-09T08:42:45.427Z,23.17
2023-02-09T08:45:49.183Z,26.07
2023-02-09T08:48:53.849Z,23.70
2023-02-09T08:51:57.013Z,27.00
2023-02-09T08:55:00.164Z,22.93
2023-02-09T08:58:04.992Z,24.30
2023-02-09T09:01:08.313Z,23.87
2023-02-09T09:04:11.657Z,23.47
2023-02-09T09:07:15.016Z,19.53
2023-02-09T09:10:18.499Z,25.37
2023-02-09T09:13:24.306Z,24.07
2023-02-09T09:16:27.520Z,20.50
2023-02-09T09:19:30.719Z,24.27
2023-02-09T09:22:33.906Z,22.97
2023-02-09T09:25:38.953Z,21.80
2023-02-09T09:28:43.856Z,18.57
2023-02-09T09:31:47.037Z,24.27
2023-02-09T09:34:53.020Z,20.00
2023-02-09T09:37:57.478Z,20.87
2023-02-09T09:41:00.637Z,21.73
2023-02-09T09:44:12.153Z,21.57
2023-02-09T09:47:19.491Z,19.90
2023-02-09T09:50:26.835Z,17.60
2023-02-09T09:53:34.506Z,15.63
2023-02-09T09:56:37.664Z,15.47
2023-02-09T09:59:43.398Z,14.33
2023-02-09T10:02:46.750Z,15.50
2023-02-09T10:05:52.308Z,18.00
2023-02-09T10:09:01.145Z,16.10
2023-02-09T10:12:16.234Z,16.03
2023-02-09T10:15:28.094Z,16.77
2023-02-09T10:18:36.015Z,17.10
2023-02-09T10:21:41.848Z,14.67
2023-02-09T10:24:45.000Z,13.53
2023-02-09T10:27:48.453Z,14.00
2023-02-09T10:30:55.870Z,15.00
2023-02-09T10:34:03.037Z,14.00
2023-02-09T10:37:23.095Z,14.63
2023-02-09T10:40:29.388Z,13.60
2023-02-09T10:43:35.025Z,14.60
2023-02-09T10:46:40.884Z,14.00
2023-02-09T10:49:44.119Z,15.17
2023-02-09T10:53:01.064Z,14.90
2023-02-09T10:56:07.381Z,15.80
2023-02-09T10:59:17.820Z,16.17
2023-02-09T11:02:38.359Z,14.60
2023-02-09T11:05:41.536Z,14.88
2023-02-09T11:08:47.748Z,16.38
2023-02-09T11:11:50.927Z,15.38
2023-02-09T11:14:54.175Z,14.20
2023-02-09T11:18:03.756Z,13.38
2023-02-09T11:21:14.263Z,10.43
2023-02-09T11:24:26.340Z,13.15
2023-02-09T11:27:52.198Z,13.18
2023-02-09T11:31:16.228Z,12.88
2023-02-09T11:34:45.603Z,12.70
2023-02-09T11:37:56.423Z,14.82
2023-02-09T11:41:21.652Z,14.68
2023-02-09T11:44:31.402Z,13.90
2023-02-09T11:47:43.604Z,14.15
2023-02-09T11:51:00.270Z,15.40
2023-02-09T11:54:08.494Z,14.65
2023-02-09T11:57:19.482Z,13.65
2023-02-09T12:00:28.690Z,11.68
2023-02-09T12:03:31.954Z,11.77
2023-02-09T12:06:39.615Z,12.00
2023-02-09T12:09:52.680Z,11.73
2023-02-09T12:13:04.408Z,13.48
2023-02-09T12:16:14.466Z,13.68
2023-02-09T12:19:27.119Z,9.65
2023-02-09T12:22:57.448Z,9.23
2023-02-09T12:26:01.660Z,8.32
2023-02-09T12:29:24.599Z,8.57
2023-02-09T12:32:43.440Z,8.27
2023-02-09T12:36:00.668Z,8.83
2023-02-09T12:39:24.194Z,8.82
2023-02-09T12:42:29.903Z,10.38
2023-02-09T12:45:36.631Z,10.53
2023-02-09T12:48:49.582Z,10.13
2023-02-09T12:51:56.109Z,9.87
2023-02-09T12:55:00.673Z,9.30
2023-02-09T12:58:03.856Z,10.33
2023-02-09T13:01:07.825Z,9.60
2023-02-09T13:04:12.076Z,12.17
2023-02-09T13:07:24.794Z,8.53
2023-02-09T13:10:36.770Z,9.50
2023-02-09T13:13:49.408Z,10.60
2023-02-09T13:17:14.803Z,9.80
2023-02-09T13:20:53.572Z,9.53
2023-02-09T13:24:03.407Z,11.40
2023-02-09T13:27:18.978Z,9.00
2023-02-09T13:30:31.270Z,9.73
2023-02-09T13:33:45.183Z,9.60
2023-02-09T13:36:56.331Z,10.57
2023-02-09T13:40:02.227Z,10.83
2023-02-09T13:43:18.443Z,10.60
2023-02-09T13:46:26.636Z,13.77
2023-02-09T13:49:31.128Z,13.20
2023-02-09T13:52:38.987Z,12.63
2023-02-09T13:55:45.438Z,10.23
2023-02-09T13:58:50.645Z,10.50
2023-02-09T14:01:55.626Z,10.27
2023-02-09T14:05:03.403Z,11.40
2023-02-09T14:08:07.173Z,9.97
2023-02-09T14:11:26.002Z,10.80
2023-02-09T14:14:49.938Z,9.77
2023-02-09T14:17:55.995Z,10.33
2023-02-09T14:21:05.741Z,9.93
2023-02-09T14:24:18.356Z,9.70
2023-02-09T14:27:24.485Z,10.57
2023-02-09T14:30:32.824Z,9.10
2023-02-09T14:33:38.592Z,10.30
2023-02-09T14:36:51.304Z,9.03
2023-02-09T14:39:55.732Z,9.10
2023-02-09T14:43:04.793Z,9.33
2023-02-09T14:46:09.468Z,8.27
2023-02-09T14:49:12.672Z,8.50
2023-02-09T14:52:16.022Z,9.83
2023-02-09T14:55:22.306Z,8.97
2023-02-09T14:58:28.265Z,7.83
2023-02-09T15:01:33.205Z,8.70
2023-02-09T15:04:36.392Z,10.00
2023-02-09T15:07:43.172Z,9.27
2023-02-09T15:10:48.664Z,11.00
2023-02-09T15:13:54.429Z,8.90
2023-02-09T15:16:59.440Z,8.50
2023-02-09T15:20:02.777Z,8.40
2023-02-09T15:23:06.334Z,8.33
2023-02-09T15:26:11.134Z,9.73
2023-02-09T15:29:17.558Z,10.30
2023-02-09T15:32:24.178Z,8.90
2023-02-09T15:35:29.795Z,8.10
2023-02-09T15:38:33.679Z,7.20
2023-02-09T15:41:54.013Z,6.57
2023-02-09T15:45:14.678Z,7.23
2023-02-09T15:48:19.271Z,9.30
2023-02-09T15:51:23.318Z,10.43
2023-02-09T15:54:33.397Z,10.30
2023-02-09T15:57:36.978Z,7.03
2023-02-09T16:00:40.965Z,9.10
2023-02-09T16:03:46.498Z,12.43
2023-02-09T16:06:51.715Z,13.53
2023-02-09T16:09:55.503Z,10.20
2023-02-09T16:12:59.782Z,12.13
2023-02-09T16:16:16.226Z,11.90
2023-02-09T16:19:22.897Z,7.90
2023-02-09T16:22:26.189Z,14.33
2023-02-09T16:25:31.154Z,8.77
2023-02-09T16:28:34.545Z,9.10
2023-02-09T16:31:37.850Z,11.23
2023-02-09T16:34:42.521Z,13.90
2023-02-09T16:37:48.285Z,14.77
2023-02-09T16:40:52.896Z,11.53
2023-02-09T16:43:56.378Z,14.33
2023-02-09T16:47:01.678Z,13.90
2023-02-09T16:50:17.447Z,12.57
2023-02-09T16:53:27.155Z,12.57
2023-02-09T16:56:31.748Z,14.97
2023-02-09T16:59:39.986Z,17.77
2023-02-09T17:02:48.733Z,21.63
2023-02-09T17:05:56.064Z,21.27
2023-02-09T17:09:00.129Z,33.77
2023-02-09T17:12:04.095Z,26.60
2023-02-09T17:15:20.701Z,28.40
2023-02-09T17:18:36.676Z,23.50
2023-02-09T17:21:43.928Z,21.27
2023-02-09T17:24:48.711Z,19.20
2023-02-09T17:27:55.390Z,17.10
2023-02-09T17:31:04.067Z,20.80
2023-02-09T17:34:10.217Z,16.07
2023-02-09T17:37:16.915Z,17.80
2023-02-09T17:40:23.934Z,21.10
2023-02-09T17:43:28.681Z,18.30
2023-02-09T17:46:32.577Z,17.17
2023-02-09T17:49:37.193Z,18.20
2023-02-09T17:52:42.739Z,17.33
2023-02-09T17:55:47.412Z,23.00
2023-02-09T17:58:53.672Z,26.13
2023-02-09T18:01:59.347Z,25.57
2023-02-09T18:05:03.793Z,22.13
2023-02-09T18:08:09.936Z,20.73
2023-02-09T18:11:18.036Z,22.57
2023-02-09T18:14:24.786Z,20.77
2023-02-09T18:17:30.608Z,24.03
2023-02-09T18:20:36.240Z,24.47
2023-02-09T18:23:42.667Z,27.90
2023-02-09T18:26:48.543Z,26.50
2023-02-09T18:29:53.189Z,25.57
2023-02-09T18:32:58.312Z,23.93
2023-02-09T18:36:08.140Z,21.83
2023-02-09T18:39:19.234Z,24.57
2023-02-09T18:42:23.664Z,27.80
2023-02-09T18:45:30.659Z,25.83
2023-02-09T18:48:35.283Z,23.40
2023-02-09T18:51:40.053Z,23.57
2023-02-09T18:54:46.046Z,24.70
2023-02-09T18:57:50.520Z,19.53
2023-02-09T19:00:54.875Z,19.00
2023-02-09T19:03:59.831Z,22.27
2023-02-09T19:07:04.448Z,20.70
2023-02-09T19:10:12.789Z,19.80
2023-02-09T19:13:20.538Z,21.00
2023-02-09T19:16:25.725Z,18.30
2023-02-09T19:19:30.776Z,22.87
2023-02-09T19:22:35.803Z,19.20
2023-02-09T19:25:42.558Z,24.70
2023-02-09T19:28:49.025Z,25.03
2023-02-09T19:31:56.230Z,23.83
2023-02-09T19:35:01.201Z,22.80
2023-02-09T19:38:05.733Z,20.30
2023-02-09T19:41:14.228Z,21.00
2023-02-09T19:44:18.989Z,16.50
2023-02-09T19:47:26.572Z,16.53
2023-02-09T19:50:32.301Z,13.70
2023-02-09T19:53:47.027Z,17.00
2023-02-09T19:56:53.627Z,15.50
2023-02-09T20:00:00.411Z,16.00
2023-02-09T20:03:06.583Z,19.10
2023-02-09T20:06:13.676Z,22.57
2023-02-09T20:09:18.784Z,18.97
2023-02-09T20:12:28.628Z,20.93
2023-02-09T20:15:34.191Z,18.97
2023-02-09T20:18:39.480Z,20.50
2023-02-09T20:21:45.628Z,18.00
2023-02-09T20:24:50.660Z,16.30
2023-02-09T20:27:57.621Z,18.53
2023-02-09T20:31:01.959Z,19.90
2023-02-09T20:34:08.299Z,18.17
2023-02-09T20:37:13.689Z,18.90
2023-02-09T20:40:19.648Z,20.53
2023-02-09T20:43:44.201Z,18.17
2023-02-09T20:46:58.876Z,20.13
2023-02-09T20:50:04.768Z,17.97
2023-02-09T20:53:09.778Z,19.40
2023-02-09T20:56:14.466Z,15.57
2023-02-09T20:59:20.007Z,19.10
2023-02-09T21:02:25.068Z,19.57
2023-02-09T21:05:29.687Z,15.73
2023-02-09T21:08:36.803Z,18.60
2023-02-09T21:11:41.722Z,25.47
2023-02-09T21:14:51.099Z,16.57
2023-02-09T21:17:56.827Z,16.60
2023-02-09T21:21:01.585Z,18.70
2023-02-09T21:24:06.300Z,22.00
2023-02-09T21:27:10.651Z,13.77
2023-02-09T21:30:16.943Z,15.73
2023-02-09T21:33:20.635Z,16.63
2023-02-09T21:36:24.456Z,16.17
2023-02-09T21:39:28.067Z,21.43
2023-02-09T21:42:32.826Z,16.20
2023-02-09T21:45:39.452Z,15.40
2023-02-09T21:48:42.945Z,15.90
2023-02-09T21:51:46.453Z,21.20
2023-02-09T21:54:50.066Z,17.07
2023-02-09T21:57:53.352Z,19.10
2023-02-09T22:00:59.536Z,16.70
2023-02-09T22:04:02.954Z,22.70
2023-02-09T22:07:06.209Z,19.80
2023-02-09T22:10:09.819Z,24.33
2023-02-09T22:13:13.006Z,17.87
2023-02-09T22:16:21.070Z,23.87
2023-02-09T22:19:24.747Z,23.77
2023-02-09T22:22:28.461Z,19.37
2023-02-09T22:25:31.756Z,20.87
2023-02-09T22:28:36.544Z,20.53
2023-02-09T22:31:41.379Z,18.93
2023-02-09T22:34:44.566Z,19.00
2023-02-09T22:37:47.847Z,20.37
2023-02-09T22:40:51.015Z,21.00
2023-02-09T22:43:56.156Z,17.07
2023-02-09T22:47:00.696Z,16.33
2023-02-09T22:50:03.914Z,17.20
2023-02-09T22:53:07.217Z,22.07
2023-02-09T22:56:11.097Z,18.13
2023-02-09T22:59:15.880Z,19.50
2023-02-09T23:02:20.414Z,18.77
2023-02-09T23:05:23.642Z,15.20
2023-02-09T23:08:26.854Z,27.20
2023-02-09T23:11:30.909Z,22.73
2023-02-09T23:14:34.099Z,19.13
2023-02-09T23:17:38.643Z,15.10
2023-02-09T23:20:41.882Z,17.77
2023-02-09T23:23:45.818Z,22.67
2023-02-09T23:26:49.509Z,21.27
2023-02-09T23:29:52.732Z,24.43
2023-02-09T23:32:57.305Z,20.10
2023-02-09T23:36:03.376Z,20.73
2023-02-09T23:39:07.428Z,21.63
2023-02-09T23:42:10.631Z,23.03
2023-02-09T23:45:13.852Z,15.53
2023-02-09T23:48:18.439Z,17.97
2023-02-09T23:51:24.351Z,17.83
2023-02-09T23:54:27.565Z,14.10
2023-02-09T23:57:31.210Z,21.17
